Time;durP1;ratioP1;P1;durP2;ratioP2;P2;SDS_P1;SDS_P2;PMS_P1;PMS_P2;Temp;Humidity;BMP_temperature;BMP_pressure;BME280_temperature;BME280_humidity;BME280_pressure;Samples;Min_cycle;Max_cycle;Signal;HPM_P1;HPM_P2
2023/08/22 00:01:59;;;;;;;;;8.33;8.33;;;;;-143.90;89.68;74438.38;4873140;28;102603;-74
2023/08/22 00:04:25;;;;;;;;;7.67;7.67;;;;;-143.90;89.78;74448.69;4880480;28;102324;-74
2023/08/22 00:06:52;;;;;;;;;10.33;10.33;;;;;-143.90;90.47;74450.75;4882225;28;103810;-74
2023/08/22 00:09:19;;;;;;;;;11.00;9.67;;;;;-143.90;90.85;74448.69;4884358;28;102059;-75
2023/08/22 00:11:46;;;;;;;;;11.33;9.67;;;;;-143.90;90.76;74442.50;4896686;28;102606;-75
2023/08/22 00:14:13;;;;;;;;;7.67;7.67;;;;;-143.90;90.81;74446.63;4876453;28;102596;-74
2023/08/22 00:16:39;;;;;;;;;10.67;10.67;;;;;-143.90;90.92;74442.50;4888729;28;105686;-75
2023/08/22 00:19:06;;;;;;;;;9.00;8.00;;;;;-143.90;90.83;74436.28;4878565;28;102373;-74
2023/08/22 00:21:33;;;;;;;;;8.33;8.00;;;;;-143.90;90.50;74438.38;4878990;28;102289;-75
2023/08/22 00:24:03;;;;;;;;;8.00;8.00;;;;;-143.90;89.78;74434.22;4885765;28;102048;-74
2023/08/22 00:26:30;;;;;;;;;5.00;5.00;;;;;-143.90;89.19;74428.03;4882035;28;103315;-75
2023/08/22 00:28:56;;;;;;;;;9.33;8.67;;;;;-143.90;88.48;74432.16;4892865;28;102446;-75
2023/08/22 00:31:23;;;;;;;;;7.67;7.67;;;;;-143.90;87.97;74444.56;4881752;28;102459;-74
2023/08/22 00:33:50;;;;;;;;;13.33;12.33;;;;;-143.90;89.09;74450.75;4884892;28;102041;-74
2023/08/22 00:36:17;;;;;;;;;8.67;8.33;;;;;-143.90;90.19;74461.09;4882574;28;103143;-75
2023/08/22 00:38:44;;;;;;;;;16.67;16.67;;;;;-143.90;91.41;74465.22;4884522;28;102431;-74
2023/08/22 00:41:11;;;;;;;;;11.00;11.00;;;;;-143.90;91.60;74467.31;4885562;28;102365;-75
2023/08/22 00:43:38;;;;;;;;;15.67;14.00;;;;;-143.90;92.02;74481.78;4888156;28;102251;-74
2023/08/22 00:46:05;;;;;;;;;11.00;10.67;;;;;-143.90;92.38;74477.63;4882409;28;104693;-74
2023/08/22 00:48:31;;;;;;;;;11.00;10.33;;;;;-143.90;92.48;74479.69;4882641;28;103006;-75
2023/08/22 00:50:58;;;;;;;;;11.33;10.67;;;;;-143.90;92.06;74481.78;4872032;28;102518;-75
2023/08/22 00:53:26;;;;;;;;;10.67;10.33;;;;;-143.90;91.87;74477.63;4889179;28;102331;-75
2023/08/22 00:55:52;;;;;;;;;9.00;8.00;;;;;-143.90;90.87;74461.09;4888720;28;103713;-74
2023/08/22 00:58:20;;;;;;;;;11.33;11.00;;;;;-143.90;91.01;74473.50;4887157;28;102109;-75
2023/08/22 01:00:47;;;;;;;;;10.33;9.67;;;;;-143.90;90.51;74473.50;4885415;28;102251;-75
2023/08/22 01:03:14;;;;;;;;;10.67;10.67;;;;;-143.90;90.62;74475.56;4883332;28;102096;-74
2023/08/22 01:05:51;;;;;;;;;11.00;11.00;;;;;-143.90;90.53;74473.50;4883188;28;103454;-75
2023/08/22 01:08:24;;;;;;;;;8.00;8.00;;;;;-143.90;90.21;74469.38;4877069;28;101991;-74
2023/08/22 01:10:55;;;;;;;;;10.67;9.67;;;;;-143.90;88.86;74475.56;4884756;28;102998;-75
2023/08/22 01:13:31;;;;;;;;;8.00;7.33;;;;;-143.90;88.02;74485.91;4877414;28;103568;-74
2023/08/22 01:16:01;;;;;;;;;9.33;9.00;;;;;-143.90;88.95;74494.16;4878289;28;109638;-74
2023/08/22 01:18:28;;;;;;;;;11.33;10.67;;;;;-143.90;89.28;74500.38;4872919;28;102192;-74
2023/08/22 01:21:04;;;;;;;;;10.33;10.33;;;;;-143.90;89.83;74500.38;4872683;28;105014;-74
2023/08/22 01:23:33;;;;;;;;;12.00;12.00;;;;;-143.90;90.19;74506.56;4845779;28;103595;-70
2023/08/22 01:26:00;;;;;;;;;11.00;11.00;;;;;-143.90;90.17;74510.72;4891794;28;103287;-75
2023/08/22 01:28:42;;;;;;;;;13.67;12.00;;;;;-143.90;90.01;74514.84;4869968;28;102622;-74
2023/08/22 01:31:30;;;;;;;;;11.00;10.33;;;;;-143.90;90.09;74504.50;4873990;28;102425;-74
2023/08/22 01:34:06;;;;;;;;;7.00;7.00;;;;;-143.90;90.18;74510.72;4900684;28;102029;-74
2023/08/22 01:36:36;;;;;;;;;8.67;8.67;;;;;-143.90;90.02;74516.91;4882708;28;107848;-75
2023/08/22 01:39:07;;;;;;;;;7.67;5.67;;;;;-143.90;89.93;74510.72;4883413;28;102807;-74
2023/08/22 01:41:35;;;;;;;;;5.67;5.67;;;;;-143.90;89.69;74521.03;4875218;28;102236;-74
2023/08/22 01:44:03;;;;;;;;;8.33;8.33;;;;;-143.90;89.33;74512.78;4901448;28;102110;-75
2023/08/22 01:46:30;;;;;;;;;8.33;7.33;;;;;-143.90;89.12;74510.72;4886110;28;103072;-75
2023/08/22 01:48:57;;;;;;;;;8.67;8.67;;;;;-143.90;88.82;74510.72;4852059;28;102608;-74
2023/08/22 01:51:23;;;;;;;;;6.33;6.00;;;;;-143.90;88.79;74508.63;4899354;28;102696;-74
2023/08/22 01:53:53;;;;;;;;;8.33;8.33;;;;;-143.90;88.67;74502.44;4886244;28;102516;-74
2023/08/22 01:56:20;;;;;;;;;6.67;6.67;;;;;-143.90;88.67;74508.63;4886292;28;104996;-75
2023/08/22 01:58:47;;;;;;;;;8.00;7.00;;;;;-143.90;89.05;74508.63;4884621;28;102416;-74
2023/08/22 02:01:14;;;;;;;;;7.00;7.00;;;;;-143.90;88.39;74496.25;4897157;28;102234;-74
2023/08/22 02:03:41;;;;;;;;;9.00;8.00;;;;;-143.90;88.92;74523.09;4883148;28;104898;-75
2023/08/22 02:06:09;;;;;;;;;11.00;10.00;;;;;-143.90;89.38;74518.97;4872295;28;103586;-74
2023/08/22 02:08:38;;;;;;;;;9.67;9.33;;;;;-143.90;89.42;74527.25;4881979;28;102229;-74
2023/08/22 02:11:05;;;;;;;;;10.00;9.00;;;;;-143.90;89.54;74531.38;4878492;28;102249;-75
2023/08/22 02:13:32;;;;;;;;;11.00;10.00;;;;;-143.90;89.47;74535.50;4877242;28;103366;-74
2023/08/22 02:16:00;;;;;;;;;9.00;8.00;;;;;-143.90;89.73;74525.19;4881285;28;104023;-74
2023/08/22 02:18:27;;;;;;;;;9.33;6.00;;;;;-143.90;89.26;74527.25;4881576;28;102095;-75
2023/08/22 02:20:55;;;;;;;;;9.00;9.00;;;;;-143.90;88.41;74531.38;4878173;28;103499;-74
2023/08/22 02:23:23;;;;;;;;;5.00;5.00;;;;;-143.90;87.75;74535.50;4897224;28;102219;-74
2023/08/22 02:25:49;;;;;;;;;6.33;6.00;;;;;-143.90;87.91;74527.25;4846444;28;104228;-74
2023/08/22 02:28:16;;;;;;;;;6.33;6.33;;;;;-143.90;88.13;74523.09;4884082;28;102135;-74
2023/08/22 02:30:43;;;;;;;;;6.33;4.67;;;;;-143.90;87.91;74533.44;4884397;28;102205;-74
2023/08/22 02:33:10;;;;;;;;;8.00;7.67;;;;;-143.90;88.87;74527.25;4884174;28;103385;-74
2023/08/22 02:35:37;;;;;;;;;8.00;8.00;;;;;-143.90;89.73;74535.50;4884054;28;103743;-75
2023/08/22 02:38:04;;;;;;;;;9.33;8.67;;;;;-143.90;90.15;74533.44;4876591;28;102095;-74
2023/08/22 02:40:30;;;;;;;;;11.33;10.67;;;;;-143.90;90.45;74531.38;4885781;28;102276;-74
2023/08/22 02:43:00;;;;;;;;;11.00;11.00;;;;;-143.90;90.78;74529.31;4886933;28;102442;-73
2023/08/22 02:45:27;;;;;;;;;12.00;9.00;;;;;-143.90;90.83;74518.97;4886819;28;108578;-74
2023/08/22 02:47:54;;;;;;;;;9.33;8.33;;;;;-143.90;90.48;74523.09;4882962;28;102073;-74
2023/08/22 02:50:23;;;;;;;;;8.00;8.00;;;;;-143.90;89.99;74523.09;4881532;28;102399;-74
2023/08/22 02:52:51;;;;;;;;;8.00;8.00;;;;;-143.90;89.20;74527.25;4900224;28;102495;-74
2023/08/22 02:55:18;;;;;;;;;10.33;9.33;;;;;-143.90;89.23;74518.97;4893612;28;103650;-74
2023/08/22 02:57:45;;;;;;;;;9.33;9.33;;;;;-143.90;89.25;74523.09;4889479;28;102042;-74
2023/08/22 03:00:13;;;;;;;;;7.00;7.00;;;;;-143.90;88.90;74514.84;4887946;28;102017;-74
2023/08/22 03:02:40;;;;;;;;;9.00;9.00;;;;;-143.90;88.76;74514.84;4900863;28;102273;-75
2023/08/22 03:05:13;;;;;;;;;10.00;9.00;;;;;-143.90;89.31;74514.84;4878228;28;105117;-75
2023/08/22 03:07:40;;;;;;;;;9.67;9.67;;;;;-143.90;89.04;74529.31;4875842;28;101953;-75
2023/08/22 03:10:08;;;;;;;;;14.67;12.33;;;;;-143.90;88.86;74518.97;4886014;28;102277;-74
2023/08/22 03:12:35;;;;;;;;;10.00;9.00;;;;;-143.90;88.67;74518.97;4885091;28;102307;-74
2023/08/22 03:15:03;;;;;;;;;8.33;8.33;;;;;-143.90;88.53;74523.09;4890489;28;103725;-74
2023/08/22 03:17:30;;;;;;;;;8.33;7.00;;;;;-143.90;88.64;74523.09;4886288;28;102131;-75
2023/08/22 03:19:57;;;;;;;;;13.67;11.33;;;;;-143.90;88.93;74527.25;4884562;28;102401;-74
2023/08/22 03:22:24;;;;;;;;;14.67;12.67;;;;;-143.90;89.02;74531.38;4886168;28;102349;-75
2023/08/22 03:24:50;;;;;;;;;11.00;10.00;;;;;-143.90;89.08;74529.31;4886676;28;104017;-75
2023/08/22 03:27:17;;;;;;;;;11.67;11.00;;;;;-143.90;88.46;74529.31;4879694;28;103437;-75
2023/08/22 03:29:44;;;;;;;;;9.33;9.00;;;;;-143.90;87.96;74539.66;4891650;28;102160;-75
2023/08/22 03:32:11;;;;;;;;;11.00;9.33;;;;;-143.90;87.86;74539.66;4888444;28;105464;-74
2023/08/22 03:34:38;;;;;;;;;8.67;8.67;;;;;-143.90;88.22;74533.44;4869211;28;103996;-74
2023/08/22 03:37:05;;;;;;;;;11.33;11.33;;;;;-143.90;87.83;74547.91;4883037;28;103896;-74
2023/08/22 03:39:32;;;;;;;;;8.00;8.00;;;;;-143.90;88.04;74529.31;4880081;28;102355;-75
2023/08/22 03:41:59;;;;;;;;;9.33;8.67;;;;;-143.90;87.72;74531.38;4878287;28;102458;-74
2023/08/22 03:44:26;;;;;;;;;11.00;11.00;;;;;-143.90;87.64;74541.72;4877027;28;105317;-74
2023/08/22 03:46:53;;;;;;;;;9.33;9.33;;;;;-143.90;87.27;74543.78;4880192;28;102188;-74
2023/08/22 03:49:20;;;;;;;;;10.67;9.33;;;;;-143.90;87.07;74547.91;4872695;28;104948;-74
2023/08/22 03:51:46;;;;;;;;;9.00;8.67;;;;;-143.90;86.70;74545.84;4876920;28;102398;-74
2023/08/22 03:54:13;;;;;;;;;10.67;9.67;;;;;-143.90;87.35;74545.84;4876409;28;104221;-75
2023/08/22 03:56:41;;;;;;;;;12.00;10.00;;;;;-143.90;87.79;74560.31;4877650;28;102110;-74
2023/08/22 03:59:07;;;;;;;;;7.33;7.33;;;;;-143.90;87.68;74560.31;4885373;28;102328;-77
2023/08/22 04:01:34;;;;;;;;;9.33;8.67;;;;;-143.90;87.54;74543.78;4884844;28;102158;-75
2023/08/22 04:04:01;;;;;;;;;10.67;10.67;;;;;-143.90;86.93;74539.66;4884651;28;109547;-75
2023/08/22 04:06:28;;;;;;;;;10.00;10.00;;;;;-143.90;87.25;74547.91;4883440;28;102499;-75
2023/08/22 04:08:55;;;;;;;;;12.00;11.00;;;;;-143.90;87.54;74556.19;4883017;28;102074;-75
2023/08/22 04:11:22;;;;;;;;;8.33;8.33;;;;;-143.90;87.30;74552.03;4893597;28;101986;-75
2023/08/22 04:13:49;;;;;;;;;10.00;9.67;;;;;-143.90;87.37;74543.78;4901667;28;104065;-75
2023/08/22 04:16:15;;;;;;;;;8.00;7.33;;;;;-143.90;87.28;74539.66;4881480;28;102557;-75
2023/08/22 04:18:42;;;;;;;;;8.00;7.67;;;;;-143.90;86.87;74543.78;4879375;28;103737;-75
2023/08/22 04:21:09;;;;;;;;;7.33;7.00;;;;;-143.90;86.57;74529.31;4886805;28;102760;-75
2023/08/22 04:23:36;;;;;;;;;10.67;10.00;;;;;-143.90;85.90;74525.19;4889448;28;103397;-74
2023/08/22 04:26:03;;;;;;;;;19.33;16.00;;;;;-143.90;85.11;74527.25;4892179;28;101982;-74
2023/08/22 04:28:30;;;;;;;;;20.00;20.00;;;;;-143.90;85.22;74533.44;4883426;28;103658;-75
2023/08/22 04:30:58;;;;;;;;;23.33;22.00;;;;;-143.90;85.11;74527.25;4885792;28;103520;-77
2023/08/22 04:33:25;;;;;;;;;15.33;15.33;;;;;-143.90;85.54;74527.25;4881846;28;104451;-74
2023/08/22 04:35:52;;;;;;;;;10.00;10.00;;;;;-143.90;86.14;74525.19;4895700;28;102010;-74
2023/08/22 04:38:20;;;;;;;;;9.33;9.00;;;;;-143.90;86.22;74523.09;4886123;28;105275;-74
2023/08/22 04:40:47;;;;;;;;;16.33;14.00;;;;;-143.90;86.19;74516.91;4886051;28;102186;-74
2023/08/22 04:43:13;;;;;;;;;10.00;10.00;;;;;-143.90;86.31;74502.44;4892770;28;105561;-74
2023/08/22 04:45:40;;;;;;;;;8.00;7.00;;;;;-143.90;86.08;74494.16;4878091;28;102572;-74
2023/08/22 04:48:07;;;;;;;;;11.67;9.67;;;;;-143.90;85.52;74500.38;4883724;28;102335;-74
2023/08/22 04:50:34;;;;;;;;;11.00;9.33;;;;;-143.90;85.04;74485.91;4900661;28;102289;-74
2023/08/22 04:53:02;;;;;;;;;7.33;6.67;;;;;-143.90;85.18;74477.63;4882514;28;109737;-74
2023/08/22 04:55:29;;;;;;;;;8.67;8.00;;;;;-143.90;85.26;74471.44;4886255;28;101939;-75
2023/08/22 04:57:56;;;;;;;;;19.33;18.33;;;;;-143.90;84.21;74465.22;4888877;28;102187;-74
2023/08/22 05:00:23;;;;;;;;;22.67;21.33;;;;;-143.90;83.97;74461.09;4888119;28;102216;-74
2023/08/22 05:02:50;;;;;;;;;16.00;16.00;;;;;-143.90;83.90;74463.16;4888934;28;103812;-75
2023/08/22 05:05:17;;;;;;;;;29.25;26.25;;;;;-143.90;83.44;74448.69;4887237;28;103488;-75
2023/08/22 05:07:46;;;;;;;;;24.33;23.67;;;;;-143.90;83.66;74428.03;4888122;28;102073;-74
2023/08/22 05:10:13;;;;;;;;;22.67;21.33;;;;;-143.90;83.45;74428.03;4891010;28;102568;-75
2023/08/22 05:12:42;;;;;;;;;16.00;15.00;;;;;-143.90;83.27;74419.75;4881787;28;104185;-74
2023/08/22 05:15:09;;;;;;;;;14.00;14.00;;;;;-143.90;83.54;74409.41;4888900;28;102267;-75
2023/08/22 05:17:37;;;;;;;;;14.00;12.67;;;;;-143.90;83.37;74390.81;4902126;28;102312;-74
2023/08/22 05:20:06;;;;;;;;;13.33;10.33;;;;;-143.90;83.30;74386.69;4891194;28;102406;-75
2023/08/22 05:22:33;;;;;;;;;8.33;8.00;;;;;-143.90;83.76;74370.16;4891611;28;110528;-74
2023/08/22 05:25:00;;;;;;;;;10.67;10.67;;;;;-143.90;80.57;74353.63;4889186;28;102033;-74
2023/08/22 05:27:27;;;;;;;;;13.33;13.33;;;;;-143.90;79.94;74345.34;4888838;28;102346;-75
2023/08/22 05:29:54;;;;;;;;;10.00;10.00;;;;;-143.90;80.08;74330.88;4889457;28;102290;-75
2023/08/22 05:32:20;;;;;;;;;13.67;13.67;;;;;-143.90;80.88;74316.41;4890302;28;103677;-74
2023/08/22 05:34:50;;;;;;;;;18.00;15.67;;;;;-143.90;79.04;74293.66;4886535;28;103298;-75
2023/08/22 05:37:17;;;;;;;;;16.67;15.67;;;;;-143.90;78.80;74266.81;4885022;28;103260;-74
2023/08/22 05:39:43;;;;;;;;;16.67;14.33;;;;;-143.90;78.66;74246.13;4889726;28;102285;-75
2023/08/22 05:42:10;;;;;;;;;15.00;14.67;;;;;-143.90;78.19;74219.25;4890777;28;103647;-75
2023/08/22 05:44:37;;;;;;;;;15.67;14.33;;;;;-143.90;78.16;74213.06;4906580;28;102469;-75
2023/08/22 05:47:04;;;;;;;;;11.00;11.00;;;;;-143.90;77.05;74219.25;4894682;28;102375;-75
2023/08/22 05:49:31;;;;;;;;;12.67;11.67;;;;;-143.90;77.76;74223.41;4887941;28;103034;-75
2023/08/22 05:52:03;;;;;;;;;17.00;17.00;;;;;-143.90;79.45;74192.41;4889114;28;103222;-75
2023/08/22 05:54:31;;;;;;;;;22.33;21.00;;;;;-143.90;79.00;74144.84;4901928;28;102386;-75
2023/08/22 05:56:58;;;;;;;;;25.00;23.67;;;;;-143.90;80.78;74084.91;4886983;28;102210;-75
2023/08/22 05:59:25;;;;;;;;;22.00;19.67;;;;;-143.90;72.31;74064.25;4906605;28;101990;-75
2023/08/22 06:01:52;;;;;;;;;19.67;18.67;;;;;-143.90;70.49;74047.72;4890113;28;104259;-75
2023/08/22 06:04:23;;;;;;;;;16.67;15.00;;;;;-143.90;70.61;74041.50;4887710;28;102105;-75
2023/08/22 06:06:50;;;;;;;;;18.00;17.33;;;;;-143.90;70.22;74004.31;4888770;28;102097;-75
2023/08/22 06:09:17;;;;;;;;;22.33;20.67;;;;;-143.90;71.81;73958.84;4891690;28;102467;-75
2023/08/22 06:11:44;;;;;;;;;14.67;14.00;;;;;-143.90;70.33;73958.84;4890721;28;103396;-75
2023/08/22 06:14:11;;;;;;;;;19.67;17.67;;;;;-143.90;70.27;73917.50;4890044;28;102153;-75
2023/08/22 06:16:37;;;;;;;;;16.67;16.00;;;;;-143.90;64.90;73876.16;4891220;28;102062;-74
2023/08/22 06:19:04;;;;;;;;;14.00;13.00;;;;;-143.90;63.58;73853.44;4895859;28;102452;-75
2023/08/22 06:21:31;;;;;;;;;15.00;14.00;;;;;-143.90;62.59;73832.78;4887638;28;104204;-75
2023/08/22 06:23:57;;;;;;;;;16.00;16.00;;;;;-143.90;60.02;73805.91;4892045;28;102461;-74
2023/08/22 06:26:24;;;;;;;;;11.33;11.33;;;;;-143.90;60.68;73812.09;4905593;28;103356;-75
2023/08/22 06:28:51;;;;;;;;;11.67;11.00;;;;;-143.90;58.62;73797.63;4903188;28;102206;-75
2023/08/22 06:31:18;;;;;;;;;14.67;13.00;;;;;-143.90;61.75;73768.69;4903497;28;103983;-75
2023/08/22 06:33:45;;;;;;;;;10.00;10.00;;;;;-143.90;57.92;73739.78;4887549;28;103054;-75
2023/08/22 06:36:12;;;;;;;;;10.00;10.00;;;;;-143.90;57.96;73729.44;4890358;28;102058;-75
2023/08/22 06:38:38;;;;;;;;;10.00;10.00;;;;;-143.90;56.23;73712.91;4894881;28;102201;-75
2023/08/22 06:41:05;;;;;;;;;9.33;9.00;;;;;-143.90;56.07;73696.38;4890641;28;104211;-75
2023/08/22 06:43:32;;;;;;;;;12.33;11.67;;;;;-143.90;57.02;73688.09;4889460;28;102297;-75
2023/08/22 06:45:59;;;;;;;;;9.33;9.00;;;;;-143.90;56.42;73681.91;4902367;28;102116;-74
2023/08/22 06:48:27;;;;;;;;;9.33;9.33;;;;;-143.90;56.76;73663.31;4890617;28;102217;-74
2023/08/22 06:51:07;;;;;;;;;8.33;7.33;;;;;-143.90;56.75;73655.03;4888428;28;110544;-74
2023/08/22 06:53:34;;;;;;;;;8.33;7.67;;;;;-143.90;57.84;73638.50;4894899;28;102154;-74
2023/08/22 06:56:01;;;;;;;;;7.00;6.00;;;;;-143.90;55.75;73646.78;4886707;28;102996;-74
2023/08/22 06:58:28;;;;;;;;;6.67;6.67;;;;;-143.90;55.78;73630.25;4890484;28;102687;-74
2023/08/22 07:00:55;;;;;;;;;5.00;5.00;;;;;-143.90;56.21;73628.16;4886798;28;104225;-74
2023/08/22 07:03:21;;;;;;;;;6.00;6.00;;;;;-143.90;54.31;73628.16;4889635;28;102019;-74
2023/08/22 07:05:55;;;;;;;;;4.00;4.00;;;;;-143.90;54.05;73624.03;4887770;28;102103;-74
2023/08/22 07:08:22;;;;;;;;;4.00;4.00;;;;;-143.90;55.81;73617.84;4888521;28;102044;-74
2023/08/22 07:10:49;;;;;;;;;3.75;3.75;;;;;-143.90;53.57;73621.97;4904688;28;103792;-73
2023/08/22 07:13:16;;;;;;;;;6.67;6.67;;;;;-143.90;53.06;73621.97;4887285;28;102873;-73
2023/08/22 07:15:46;;;;;;;;;5.67;5.67;;;;;-143.90;53.82;73634.38;4889740;28;102822;-74
2023/08/22 07:18:13;;;;;;;;;5.00;5.00;;;;;-143.90;54.58;73613.72;4890033;28;102434;-74
2023/08/22 07:20:39;;;;;;;;;4.00;4.00;;;;;-143.90;55.02;73609.56;4892750;28;103624;-73
2023/08/22 07:23:06;;;;;;;;;9.33;8.67;;;;;-143.90;54.14;73597.16;4893836;28;102311;-73
2023/08/22 07:25:33;;;;;;;;;7.00;7.00;;;;;-143.90;51.81;73626.09;4889666;28;102049;-75
2023/08/22 07:27:59;;;;;;;;;9.33;8.00;;;;;-143.90;55.02;73636.44;4890809;28;102655;-75
2023/08/22 07:30:26;;;;;;;;;8.33;8.00;;;;;-143.90;53.82;73659.16;4889758;28;103996;-74
2023/08/22 07:32:53;;;;;;;;;8.00;8.00;;;;;-143.90;54.77;73683.97;4887605;28;102118;-75
2023/08/22 07:35:20;;;;;;;;;9.67;9.00;;;;;-143.90;58.67;73667.44;4885914;28;102164;-75
2023/08/22 07:37:46;;;;;;;;;9.33;9.00;;;;;-143.90;56.20;73704.63;4894856;28;103741;-73
2023/08/22 07:40:14;;;;;;;;;9.00;9.00;;;;;-143.90;56.53;73688.09;4890855;28;103998;-75
2023/08/22 07:42:40;;;;;;;;;6.67;6.67;;;;;-143.90;57.43;73671.56;4894562;28;102305;-75
2023/08/22 07:45:08;;;;;;;;;11.67;11.33;;;;;-143.90;55.43;73681.91;4895929;28;102681;-76
2023/08/22 07:47:35;;;;;;;;;10.33;9.67;;;;;-143.90;54.25;73675.69;4897333;28;102348;-75
2023/08/22 07:50:03;;;;;;;;;14.33;14.33;;;;;-143.90;55.17;73673.63;4907913;28;110497;-76
2023/08/22 07:52:30;;;;;;;;;13.00;13.00;;;;;-143.90;57.04;73663.31;4896506;28;102256;-75
2023/08/22 07:54:57;;;;;;;;;16.00;14.00;;;;;-143.90;55.53;73700.50;4896979;28;103319;-75
2023/08/22 07:57:24;;;;;;;;;13.00;13.00;;;;;-143.90;56.21;73679.84;4911018;28;102541;-76
2023/08/22 07:59:51;;;;;;;;;12.00;11.67;;;;;-143.90;55.58;73667.44;4894464;28;103274;-74
2023/08/22 08:02:17;;;;;;;;;8.00;7.33;;;;;-143.90;57.84;73644.69;4894992;28;104193;-76
2023/08/22 08:04:44;;;;;;;;;15.67;15.67;;;;;-143.90;55.71;73626.09;4895366;28;102308;-73
2023/08/22 08:07:11;;;;;;;;;15.33;14.33;;;;;-143.90;57.55;73617.84;4894406;28;102352;-74
2023/08/22 08:09:38;;;;;;;;;13.33;13.00;;;;;-143.90;56.07;73601.31;4896973;28;104396;-73
2023/08/22 08:12:05;;;;;;;;;18.33;15.33;;;;;-143.90;57.94;73603.38;4895755;28;102219;-73
2023/08/22 08:14:32;;;;;;;;;10.33;10.33;;;;;-143.90;57.75;73578.56;4898366;28;103806;-73
2023/08/22 08:16:59;;;;;;;;;13.00;12.33;;;;;-143.90;56.53;73628.16;4895471;28;102108;-73
2023/08/22 08:19:26;;;;;;;;;12.00;12.00;;;;;-143.90;56.95;73590.97;4896064;28;104114;-73
2023/08/22 08:21:53;;;;;;;;;12.00;12.00;;;;;-143.90;56.32;73570.31;4896894;28;102202;-74
2023/08/22 08:24:20;;;;;;;;;10.00;9.00;;;;;-143.90;57.85;73555.84;4895195;28;102515;-74
2023/08/22 08:26:47;;;;;;;;;10.33;10.00;;;;;-143.90;56.71;73580.63;4897961;28;102264;-74
2023/08/22 08:29:14;;;;;;;;;10.00;10.00;;;;;-143.90;57.19;73564.09;4892992;28;103157;-74
2023/08/22 08:31:41;;;;;;;;;12.33;12.00;;;;;-143.90;57.48;73545.50;4894487;28;102394;-74
2023/08/22 08:34:07;;;;;;;;;8.33;8.33;;;;;-143.90;57.72;73522.78;4910654;28;102404;-74
2023/08/22 08:36:34;;;;;;;;;9.00;9.00;;;;;-143.90;58.67;73514.50;4898790;28;102048;-74
2023/08/22 08:39:02;;;;;;;;;13.33;11.67;;;;;-143.90;55.38;73514.50;4895991;28;103375;-74
2023/08/22 08:41:33;;;;;;;;;12.00;12.00;;;;;-143.90;58.26;73502.09;4897808;28;102337;-74
2023/08/22 08:44:01;;;;;;;;;8.33;8.33;;;;;-143.90;55.44;73481.44;4893439;28;102617;-74
2023/08/22 08:46:29;;;;;;;;;9.00;9.00;;;;;-143.90;55.62;73481.44;4891940;28;103648;-74
2023/08/22 08:48:57;;;;;;;;;6.67;6.67;;;;;-143.90;55.80;73477.31;4890028;28;104217;-74
2023/08/22 08:51:24;;;;;;;;;7.67;7.67;;;;;-143.90;55.35;73454.59;4891866;28;101890;-75
2023/08/22 08:53:53;;;;;;;;;9.00;7.67;;;;;-143.90;54.07;73423.59;4903793;28;102255;-75
2023/08/22 08:56:20;;;;;;;;;7.67;7.00;;;;;-143.90;54.55;73407.06;4893156;28;102384;-75
2023/08/22 08:58:50;;;;;;;;;6.00;6.00;;;;;-143.90;53.04;73390.53;4886858;28;104576;-74
2023/08/22 09:01:17;;;;;;;;;7.00;7.00;;;;;-143.90;52.89;73378.13;4887952;28;104688;-75
2023/08/22 09:03:44;;;;;;;;;6.75;4.75;;;;;-143.90;52.66;73374.00;4893341;28;102351;-75
2023/08/22 09:06:12;;;;;;;;;8.50;7.75;;;;;-143.90;52.56;73407.06;4894974;28;102434;-75
2023/08/22 09:08:39;;;;;;;;;7.25;6.75;;;;;-143.90;51.72;73382.25;4889464;28;104040;-75
2023/08/22 09:11:06;;;;;;;;;11.67;10.00;;;;;-143.90;48.81;73390.53;4894449;28;103553;-75
2023/08/22 09:13:36;;;;;;;;;11.00;9.00;;;;;-143.90;50.13;73431.84;4892498;28;103336;-75
2023/08/22 09:16:23;;;;;;;;;12.33;12.33;;;;;-143.90;50.21;73435.97;4876570;28;102385;-75
2023/08/22 09:18:50;;;;;;;;;12.00;11.33;;;;;-143.90;52.43;73464.91;4888705;28;105334;-75
2023/08/22 09:21:17;;;;;;;;;8.67;8.00;;;;;-143.90;52.10;73435.97;4900601;28;105139;-75
2023/08/22 09:23:49;;;;;;;;;11.00;10.00;;;;;-143.90;49.55;73450.44;4890892;28;102489;-74
2023/08/22 09:26:22;;;;;;;;;11.00;10.33;;;;;-143.90;49.95;73450.44;4893988;28;102185;-75
2023/08/22 09:28:48;;;;;;;;;9.00;9.00;;;;;-143.90;48.05;73431.84;4888556;28;103328;-74
2023/08/22 09:31:23;;;;;;;;;11.33;10.67;;;;;-143.90;45.89;73427.72;4891290;28;102398;-75
2023/08/22 09:33:51;;;;;;;;;15.67;15.00;;;;;-143.90;46.51;73415.31;4890426;28;102160;-75
2023/08/22 09:36:20;;;;;;;;;8.67;8.67;;;;;-143.90;47.76;73398.78;4907353;28;102385;-74
2023/08/22 09:38:58;;;;;;;;;9.00;9.00;;;;;-143.90;47.64;73378.13;4889572;28;104289;-74
2023/08/22 09:41:26;;;;;;;;;12.00;11.67;;;;;-143.90;48.22;73361.59;4890599;28;102132;-75
2023/08/22 09:44:01;;;;;;;;;8.00;8.00;;;;;-143.90;42.97;73359.53;4892564;28;102286;-74
2023/08/22 09:46:29;;;;;;;;;7.00;7.00;;;;;-143.90;39.90;73374.00;4890192;28;102290;-75
2023/08/22 09:48:57;;;;;;;;;5.00;5.00;;;;;-143.90;43.34;73349.19;4887736;28;104081;-73
2023/08/22 09:51:24;;;;;;;;;9.75;9.00;;;;;-143.90;43.94;73371.91;4893777;28;102142;-74
2023/08/22 09:53:53;;;;;;;;;4.00;3.25;;;;;-143.90;43.86;73336.78;4885771;28;102422;-73
2023/08/22 09:56:20;;;;;;;;;6.00;6.00;;;;;-143.90;42.79;73318.19;4888809;28;102070;-73
2023/08/22 09:58:47;;;;;;;;;7.00;6.25;;;;;-143.90;43.75;73305.78;4887680;28;104122;-73
2023/08/22 10:01:16;;;;;;;;;3.00;3.00;;;;;-143.90;41.04;73301.66;4893751;28;102117;-73
2023/08/22 10:03:44;;;;;;;;;3.50;3.50;;;;;-143.90;42.08;73289.25;4889640;28;102043;-73
2023/08/22 10:06:13;;;;;;;;;3.75;2.00;;;;;-143.90;41.80;73262.41;4893147;28;102342;-73
2023/08/22 10:08:46;;;;;;;;;4.25;4.25;;;;;-143.90;43.04;73258.25;4891915;28;104189;-73
2023/08/22 10:11:14;;;;;;;;;9.00;8.50;;;;;-143.90;38.63;73243.81;4893690;28;101988;-74
2023/08/22 10:13:43;;;;;;;;;5.25;5.25;;;;;-143.90;39.68;73254.13;4887946;28;103085;-74
2023/08/22 10:16:10;;;;;;;;;4.00;4.00;;;;;-143.90;40.08;73252.06;4891301;28;102279;-73
2023/08/22 10:18:37;;;;;;;;;5.75;5.75;;;;;-143.90;40.79;73262.41;4907010;28;103988;-74
2023/08/22 10:21:04;;;;;;;;;6.67;6.67;;;;;-143.90;39.48;73258.25;4890539;28;102101;-74
2023/08/22 10:23:49;;;;;;;;;5.50;5.00;;;;;-143.90;38.67;73247.94;4889646;28;102251;-74
2023/08/22 10:26:16;;;;;;;;;5.00;4.25;;;;;-143.90;39.47;73243.81;4890424;28;102199;-73
2023/08/22 10:28:43;;;;;;;;;5.25;4.00;;;;;-143.90;39.31;73231.41;4891094;28;104060;-73
2023/08/22 10:31:11;;;;;;;;;4.00;3.25;;;;;-143.90;40.47;73223.13;4890687;28;101948;-75
2023/08/22 10:33:38;;;;;;;;;4.25;3.75;;;;;-143.90;40.22;73212.81;4891290;28;102263;-74
2023/08/22 10:36:24;;;;;;;;;4.00;4.00;;;;;-143.90;36.58;73216.94;4894140;28;102209;-74
2023/08/22 10:38:57;;;;;;;;;3.50;3.50;;;;;-143.90;39.94;73208.69;4890155;28;108886;-74
2023/08/22 10:41:44;;;;;;;;;3.00;3.00;;;;;-143.90;38.12;73196.28;4889049;28;102301;-74
2023/08/22 10:44:17;;;;;;;;;2.00;1.25;;;;;-143.90;38.42;73179.75;4902808;28;102195;-73
2023/08/22 10:47:07;;;;;;;;;3.50;3.50;;;;;-143.90;36.48;73175.63;4908755;28;102110;-74
2023/08/22 10:49:38;;;;;;;;;2.75;2.75;;;;;-143.90;38.78;73167.34;4891454;28;107920;-73
2023/08/22 10:52:11;;;;;;;;;2.00;2.00;;;;;-143.90;38.92;73157.00;4887025;28;102011;-73
2023/08/22 10:55:03;;;;;;;;;4.00;3.25;;;;;-143.90;37.89;73154.94;4889284;28;102585;-74
2023/08/22 10:57:32;;;;;;;;;4.00;4.00;;;;;-143.90;38.30;73142.56;4888199;28;102401;-73
2023/08/22 10:59:59;;;;;;;;;3.00;3.00;;;;;-143.90;36.92;73132.22;4892047;28;103816;-73
2023/08/22 11:02:31;;;;;;;;;2.75;2.00;;;;;-143.90;36.60;73121.88;4887051;28;102479;-73
2023/08/22 11:05:00;;;;;;;;;2.75;2.00;;;;;-143.90;36.27;73113.63;4889167;28;102005;-74
2023/08/22 11:07:28;;;;;;;;;2.25;2.25;;;;;-143.90;36.95;73109.50;4890075;28;102574;-73